Time;durP1;ratioP1;P1;durP2;ratioP2;P2;SDS_P1;SDS_P2;PMS_P1;PMS_P2;Temp;Humidity;BMP_temperature;BMP_pressure;BME280_temperature;BME280_humidity;BME280_pressure;Samples;Min_cycle;Max_cycle;Signal;HPM_P1;HPM_P2
2023/06/30 00:00:12;;;;;;;10.18;2.92;;;13.90;99.90;;;;;;4894763;29;36299;-93
2023/06/30 00:02:40;;;;;;;7.95;2.60;;;14.00;99.90;;;;;;4893477;29;38152;-93
2023/06/30 00:05:07;;;;;;;5.53;2.53;;;13.90;99.90;;;;;;4884957;29;38949;-92
2023/06/30 00:07:33;;;;;;;7.57;2.30;;;13.90;99.90;;;;;;4907291;29;37145;-92
2023/06/30 00:10:00;;;;;;;10.88;2.40;;;13.80;99.90;;;;;;4893110;29;36262;-92
2023/06/30 00:12:26;;;;;;;6.22;2.25;;;13.70;99.90;;;;;;4889384;29;38010;-93
2023/06/30 00:14:52;;;;;;;5.53;1.70;;;13.70;99.90;;;;;;4896947;29;37168;-91
2023/06/30 00:17:18;;;;;;;6.28;2.05;;;13.70;99.90;;;;;;4892957;29;38282;-92
2023/06/30 00:19:44;;;;;;;8.77;2.97;;;13.70;99.90;;;;;;4896920;29;36171;-93
2023/06/30 00:22:13;;;;;;;5.28;2.47;;;13.60;99.90;;;;;;4894389;29;37786;-92
2023/06/30 00:24:39;;;;;;;9.10;2.50;;;13.70;99.90;;;;;;4884544;29;38835;-92
2023/06/30 00:27:05;;;;;;;6.57;2.30;;;13.60;99.90;;;;;;4894007;29;37215;-93
2023/06/30 00:29:31;;;;;;;6.28;2.05;;;13.60;99.90;;;;;;4909013;29;36630;-90
2023/06/30 00:31:57;;;;;;;7.80;3.05;;;13.50;99.90;;;;;;4896857;29;37910;-93
2023/06/30 00:34:23;;;;;;;4.95;2.45;;;13.50;99.90;;;;;;4899398;28;38400;-91
2023/06/30 04:36:40;;;;;;;8.15;2.47;;;13.50;99.90;;;;;;4952901;23;20052;-82
2023/06/30 04:42:08;;;;;;;3.22;1.80;;;13.80;99.90;;;;;;4957126;23;20052;-85
2023/06/30 04:44:36;;;;;;;8.88;2.67;;;13.90;99.90;;;;;;4913423;29;38563;-82
2023/06/30 04:47:03;;;;;;;5.05;2.20;;;13.90;99.90;;;;;;4894221;29;37202;-85
2023/06/30 04:49:29;;;;;;;9.57;2.78;;;14.00;99.90;;;;;;4898007;29;38981;-86
2023/06/30 04:51:55;;;;;;;9.52;2.83;;;14.10;99.90;;;;;;4895351;29;38139;-87
2023/06/30 04:54:22;;;;;;;8.02;2.78;;;14.20;99.90;;;;;;4896163;29;37659;-88
2023/06/30 04:56:48;;;;;;;5.72;2.90;;;14.30;99.90;;;;;;4891785;29;37296;-89
2023/06/30 04:59:14;;;;;;;7.03;2.95;;;14.30;99.90;;;;;;4906316;29;37248;-89
2023/06/30 05:01:40;;;;;;;5.97;2.30;;;14.50;99.90;;;;;;4885447;29;37951;-90
2023/06/30 05:04:08;;;;;;;7.47;2.83;;;14.60;99.90;;;;;;4919338;29;39464;-89
2023/06/30 05:06:34;;;;;;;3.30;1.98;;;14.70;99.90;;;;;;4901663;29;39231;-89
2023/06/30 05:09:00;;;;;;;4.30;2.03;;;15.00;99.90;;;;;;4898332;29;38720;-89
2023/06/30 05:11:26;;;;;;;4.55;2.17;;;15.20;99.90;;;;;;4897565;29;38069;-89
2023/06/30 05:13:52;;;;;;;4.38;2.25;;;15.50;99.90;;;;;;4894293;29;39738;-90
2023/06/30 05:16:18;;;;;;;4.07;1.63;;;15.80;99.90;;;;;;4898711;29;37429;-90
2023/06/30 05:18:44;;;;;;;4.78;1.50;;;15.90;99.90;;;;;;4892758;29;38708;-90
2023/06/30 05:21:10;;;;;;;6.82;2.10;;;16.10;99.90;;;;;;4896839;29;38366;-91
2023/06/30 05:23:36;;;;;;;4.53;1.38;;;16.40;99.90;;;;;;4912857;29;38626;-88
2023/06/30 05:26:03;;;;;;;5.40;1.70;;;16.50;99.90;;;;;;4894308;29;37565;-86
2023/06/30 05:28:29;;;;;;;8.05;2.00;;;16.60;99.90;;;;;;4915264;29;38000;-88
2023/06/30 05:30:55;;;;;;;5.80;1.48;;;16.70;99.90;;;;;;4893166;29;37935;-87
2023/06/30 05:33:21;;;;;;;9.07;1.73;;;16.80;99.90;;;;;;4902079;29;39804;-86
2023/06/30 05:35:47;;;;;;;6.78;1.85;;;16.90;99.90;;;;;;4897422;29;39940;-85
2023/06/30 05:38:13;;;;;;;3.60;1.38;;;17.00;99.90;;;;;;4893803;29;38219;-87
2023/06/30 05:40:39;;;;;;;5.55;1.23;;;17.10;99.90;;;;;;4893720;29;36586;-86
2023/06/30 05:43:05;;;;;;;7.85;1.40;;;17.30;99.90;;;;;;4908136;29;38766;-86
2023/06/30 05:45:32;;;;;;;8.82;1.83;;;17.40;99.90;;;;;;4899275;29;39091;-87
2023/06/30 05:47:58;;;;;;;6.22;1.30;;;17.60;99.90;;;;;;4896069;29;38670;-87
2023/06/30 05:50:25;;;;;;;5.97;1.45;;;17.70;99.90;;;;;;4900370;29;37776;-87
2023/06/30 05:52:51;;;;;;;5.32;1.45;;;17.80;99.90;;;;;;4901486;29;39682;-85
2023/06/30 05:55:17;;;;;;;4.13;1.15;;;17.90;99.90;;;;;;4899966;29;37349;-85
2023/06/30 05:57:44;;;;;;;8.13;1.90;;;18.00;99.90;;;;;;4909260;29;38205;-86
2023/06/30 06:00:10;;;;;;;4.47;1.73;;;18.10;99.90;;;;;;4894457;29;38482;-87
2023/06/30 06:02:37;;;;;;;3.35;1.02;;;18.10;99.90;;;;;;4895592;29;40176;-88
2023/06/30 06:05:03;;;;;;;5.75;1.20;;;18.10;99.90;;;;;;4916937;29;38226;-88
2023/06/30 06:07:29;;;;;;;5.28;1.20;;;18.20;99.90;;;;;;4897038;29;39097;-88
2023/06/30 06:09:55;;;;;;;6.60;1.67;;;18.40;99.90;;;;;;4908148;29;35498;-87
2023/06/30 06:12:22;;;;;;;3.60;1.10;;;18.50;99.90;;;;;;4917762;29;39613;-87
2023/06/30 06:14:48;;;;;;;5.07;1.20;;;18.70;99.90;;;;;;4895423;29;40156;-86
2023/06/30 06:17:14;;;;;;;3.33;1.40;;;18.80;99.90;;;;;;4896156;29;39149;-86
2023/06/30 06:19:40;;;;;;;7.70;1.67;;;18.90;99.90;;;;;;4913918;29;37249;-87
2023/06/30 06:22:06;;;;;;;4.45;1.50;;;19.00;99.90;;;;;;4900897;29;39536;-86
2023/06/30 06:24:32;;;;;;;2.05;1.05;;;19.10;99.90;;;;;;4905496;29;40007;-88
2023/06/30 06:26:58;;;;;;;6.47;1.40;;;19.20;99.90;;;;;;4908999;29;38807;-88
2023/06/30 06:29:24;;;;;;;5.18;1.10;;;19.40;99.90;;;;;;4896721;29;38109;-86
2023/06/30 06:31:51;;;;;;;5.38;1.20;;;19.40;99.90;;;;;;4909033;29;37965;-86
2023/06/30 06:34:19;;;;;;;3.95;1.33;;;19.60;99.90;;;;;;4897298;29;39781;-89
2023/06/30 06:36:46;;;;;;;4.28;1.40;;;19.50;99.90;;;;;;4891263;29;38396;-88
2023/06/30 06:39:12;;;;;;;6.45;1.10;;;19.50;99.90;;;;;;4896684;29;38760;-88
2023/06/30 06:41:38;;;;;;;4.22;1.10;;;19.60;99.90;;;;;;4896685;29;40634;-87
2023/06/30 06:44:15;;;;;;;4.38;1.33;;;19.60;99.90;;;;;;4903827;29;37114;-88
2023/06/30 06:46:43;;;;;;;7.63;1.20;;;19.70;99.90;;;;;;4897764;29;38931;-87
2023/06/30 06:49:11;;;;;;;4.43;1.27;;;19.80;99.90;;;;;;4898705;29;37928;-88
2023/06/30 06:51:37;;;;;;;4.72;1.00;;;20.00;99.90;;;;;;4890369;29;39217;-88
2023/06/30 06:54:03;;;;;;;3.50;1.30;;;19.90;99.90;;;;;;4894095;29;40226;-89
2023/06/30 06:56:29;;;;;;;4.13;1.17;;;20.10;99.90;;;;;;4912966;29;39111;-89
2023/06/30 06:58:55;;;;;;;2.97;0.95;;;20.40;99.90;;;;;;4896895;29;37803;-88
2023/06/30 07:01:22;;;;;;;3.63;1.05;;;20.20;99.90;;;;;;4897388;29;39804;-89
2023/06/30 07:03:48;;;;;;;5.60;1.20;;;20.10;99.90;;;;;;4916667;29;38996;-89
2023/06/30 07:06:16;;;;;;;4.68;1.40;;;20.20;99.90;;;;;;4895639;29;39446;-89
2023/06/30 07:08:42;;;;;;;6.28;1.50;;;20.30;99.90;;;;;;4899099;29;36146;-88
2023/06/30 07:11:08;;;;;;;4.57;1.08;;;20.50;99.90;;;;;;4915291;29;38650;-88
2023/06/30 07:13:35;;;;;;;6.75;1.33;;;20.90;99.90;;;;;;4890712;29;38780;-87
2023/06/30 07:16:01;;;;;;;5.28;1.27;;;20.90;99.90;;;;;;4896168;29;40237;-88
2023/06/30 07:18:27;;;;;;;1.73;0.90;;;21.00;99.90;;;;;;4919789;29;48072;-88
2023/06/30 07:20:54;;;;;;;5.25;0.80;;;21.00;99.90;;;;;;4894438;29;39621;-87
2023/06/30 07:23:20;;;;;;;3.72;1.02;;;20.60;99.90;;;;;;4897409;29;39056;-87
2023/06/30 07:25:49;;;;;;;3.30;1.23;;;20.60;99.90;;;;;;4890827;29;37095;-87
2023/06/30 07:28:15;;;;;;;4.55;0.90;;;20.60;99.90;;;;;;4897667;29;38507;-88
2023/06/30 07:30:42;;;;;;;4.43;0.98;;;20.80;99.90;;;;;;4920860;29;38993;-87
2023/06/30 07:33:08;;;;;;;3.63;1.00;;;20.90;99.90;;;;;;4890845;29;40188;-87
2023/06/30 07:35:34;;;;;;;3.97;1.50;;;21.30;99.90;;;;;;4900266;29;38973;-87
2023/06/30 07:38:00;;;;;;;2.95;1.00;;;21.40;99.90;;;;;;4900992;29;37411;-86
2023/06/30 07:40:26;;;;;;;4.07;1.13;;;21.20;99.90;;;;;;4910550;29;39876;-85
2023/06/30 07:42:53;;;;;;;5.57;1.40;;;21.00;99.90;;;;;;4906736;29;39433;-86
2023/06/30 07:45:19;;;;;;;4.80;1.05;;;21.00;99.90;;;;;;4901361;29;38855;-84
2023/06/30 07:47:47;;;;;;;3.25;1.35;;;21.50;99.90;;;;;;4916614;29;37840;-84
2023/06/30 07:50:15;;;;;;;2.95;1.00;;;21.70;99.90;;;;;;4914694;29;38396;-83
2023/06/30 07:52:43;;;;;;;3.35;1.20;;;22.00;99.90;;;;;;4911753;29;39230;-83
2023/06/30 07:55:12;;;;;;;5.85;1.23;;;22.10;99.90;;;;;;4893956;29;38776;-83
2023/06/30 07:57:39;;;;;;;6.15;1.23;;;22.50;99.90;;;;;;4909556;29;38613;-84
2023/06/30 08:00:06;;;;;;;4.25;1.10;;;21.90;99.90;;;;;;4912584;29;39924;-84
2023/06/30 08:02:32;;;;;;;3.70;1.00;;;20.80;99.90;;;;;;4889198;29;39005;-82
2023/06/30 08:04:58;;;;;;;4.53;1.23;;;20.80;99.90;;;;;;4906698;29;37474;-82
2023/06/30 08:07:24;;;;;;;4.68;1.17;;;21.40;99.90;;;;;;4893023;29;38864;-83
2023/06/30 08:09:50;;;;;;;2.50;1.00;;;21.80;99.90;;;;;;4894083;29;39231;-85
2023/06/30 08:12:16;;;;;;;3.20;1.13;;;22.20;99.90;;;;;;4909384;29;38847;-84
2023/06/30 08:14:43;;;;;;;3.90;1.08;;;22.30;99.90;;;;;;4888198;29;38765;-84
2023/06/30 08:17:09;;;;;;;4.20;1.00;;;21.90;99.90;;;;;;4890910;29;37852;-83
2023/06/30 08:19:37;;;;;;;3.28;1.10;;;21.90;99.90;;;;;;4907313;29;37478;-85
2023/06/30 08:22:04;;;;;;;3.72;1.25;;;22.10;99.90;;;;;;4911980;29;38500;-83
2023/06/30 08:24:31;;;;;;;3.05;1.05;;;22.40;99.90;;;;;;4932535;29;38865;-86
2023/06/30 08:26:57;;;;;;;3.45;1.15;;;22.40;99.90;;;;;;4914680;29;37688;-85
2023/06/30 08:29:27;;;;;;;3.47;1.38;;;22.50;99.90;;;;;;4913454;29;38921;-85
2023/06/30 08:31:54;;;;;;;2.47;1.55;;;22.40;99.90;;;;;;4896173;29;40410;-85
2023/06/30 08:34:23;;;;;;;7.05;1.02;;;22.30;99.90;;;;;;4888289;29;38498;-86
2023/06/30 08:36:50;;;;;;;6.88;1.20;;;22.10;99.90;;;;;;4908409;29;37399;-85
2023/06/30 08:39:16;;;;;;;3.95;1.10;;;21.80;99.90;;;;;;4891711;29;39853;-85
2023/06/30 08:41:43;;;;;;;7.68;1.30;;;21.60;99.90;;;;;;4892976;29;40065;-85
2023/06/30 08:44:10;;;;;;;3.65;1.05;;;21.70;99.90;;;;;;4887489;29;38881;-85
2023/06/30 08:46:36;;;;;;;3.15;1.00;;;22.00;99.90;;;;;;4910833;29;37652;-85
2023/06/30 08:49:03;;;;;;;5.28;1.10;;;21.90;99.90;;;;;;4892781;29;39563;-86
2023/06/30 08:51:30;;;;;;;5.90;1.38;;;21.70;99.90;;;;;;4900595;29;40061;-86
2023/06/30 08:53:57;;;;;;;4.20;1.48;;;21.50;99.90;;;;;;4897396;29;36694;-86
2023/06/30 08:56:25;;;;;;;2.92;1.20;;;21.40;99.90;;;;;;4897567;29;37980;-86
2023/06/30 08:58:52;;;;;;;4.22;1.52;;;21.50;99.90;;;;;;4910728;29;38716;-86
2023/06/30 09:01:19;;;;;;;7.68;1.63;;;21.80;99.90;;;;;;4895259;29;39392;-86
2023/06/30 09:03:45;;;;;;;4.43;1.40;;;21.70;99.90;;;;;;4897999;29;38451;-85
2023/06/30 09:06:12;;;;;;;2.92;1.13;;;21.60;99.90;;;;;;4901317;29;39185;-85
2023/06/30 09:08:47;;;;;;;5.32;1.45;;;21.40;99.90;;;;;;4896255;29;40112;-85
2023/06/30 09:11:16;;;;;;;4.65;1.13;;;21.70;99.90;;;;;;4913939;29;38476;-86
2023/06/30 09:13:44;;;;;;;3.53;1.42;;;22.20;99.90;;;;;;4899322;29;38639;-86
2023/06/30 09:16:15;;;;;;;3.15;1.20;;;21.70;99.90;;;;;;4908787;29;37375;-86
2023/06/30 09:18:42;;;;;;;5.30;1.20;;;21.60;99.90;;;;;;4909400;29;38405;-85
2023/06/30 09:21:10;;;;;;;3.78;1.30;;;22.40;99.90;;;;;;4908895;29;39792;-86
2023/06/30 09:23:37;;;;;;;4.85;1.20;;;22.80;99.90;;;;;;4894015;29;37113;-85
2023/06/30 09:26:12;;;;;;;2.08;1.10;;;23.20;99.90;;;;;;4893108;29;37327;-85
2023/06/30 09:28:42;;;;;;;4.30;1.58;;;23.60;99.90;;;;;;4894177;29;42547;-86
2023/06/30 09:31:08;;;;;;;4.15;1.42;;;23.20;99.90;;;;;;4890152;29;38837;-85
2023/06/30 09:33:36;;;;;;;19.10;2.17;;;22.90;99.90;;;;;;4898479;29;37283;-86
2023/06/30 09:36:03;;;;;;;3.85;1.10;;;22.60;99.90;;;;;;4893278;29;36404;-84
2023/06/30 09:38:30;;;;;;;3.67;1.40;;;22.40;99.90;;;;;;4893026;29;39682;-86
2023/06/30 09:40:56;;;;;;;6.07;1.30;;;22.40;99.90;;;;;;4893971;29;40032;-85
2023/06/30 09:43:25;;;;;;;6.80;1.67;;;22.60;99.90;;;;;;4895136;29;39135;-87
2023/06/30 09:45:55;;;;;;;5.55;1.33;;;22.30;99.90;;;;;;4909306;29;37591;-87
2023/06/30 09:48:27;;;;;;;6.30;1.20;;;21.70;99.90;;;;;;4892908;29;39152;-86
2023/06/30 09:50:54;;;;;;;6.13;1.17;;;21.90;99.90;;;;;;4887092;29;40187;-86
2023/06/30 09:53:20;;;;;;;9.18;1.73;;;22.70;99.90;;;;;;4898107;29;36938;-87
2023/06/30 09:55:49;;;;;;;5.88;1.52;;;23.50;99.90;;;;;;4903998;29;37994;-86
2023/06/30 09:58:17;;;;;;;5.05;1.23;;;23.30;99.90;;;;;;4903460;29;39531;-85
2023/06/30 10:00:44;;;;;;;49.65;3.30;;;23.00;99.90;;;;;;4910674;29;39276;-86
2023/06/30 10:03:10;;;;;;;5.75;1.52;;;22.90;99.90;;;;;;4909982;29;39036;-86
2023/06/30 10:05:38;;;;;;;18.52;1.80;;;22.70;99.90;;;;;;4893300;29;38692;-86
2023/06/30 10:08:04;;;;;;;4.10;1.40;;;22.60;99.90;;;;;;4894694;29;39300;-85
2023/06/30 10:10:31;;;;;;;4.00;1.13;;;22.70;99.90;;;;;;4896964;29;38776;-87
2023/06/30 10:12:58;;;;;;;3.63;1.13;;;22.70;99.90;;;;;;4896027;29;38680;-86
2023/06/30 10:15:25;;;;;;;6.05;1.63;;;22.10;99.90;;;;;;4897122;29;37990;-84
2023/06/30 10:17:54;;;;;;;6.38;1.40;;;22.50;99.90;;;;;;4896027;29;39645;-85
2023/06/30 10:20:22;;;;;;;4.32;1.42;;;22.70;99.90;;;;;;4896498;29;38792;-87
2023/06/30 10:22:49;;;;;;;16.50;1.92;;;22.90;99.90;;;;;;4914779;29;38464;-85
2023/06/30 10:25:18;;;;;;;2.97;1.13;;;22.90;99.90;;;;;;4919931;29;37996;-85
2023/06/30 10:27:46;;;;;;;4.85;1.52;;;23.00;99.90;;;;;;4900429;29;39650;-85
2023/06/30 10:30:13;;;;;;;4.30;1.58;;;23.10;99.90;;;;;;4899357;29;38964;-83
2023/06/30 10:32:39;;;;;;;3.38;1.60;;;22.90;99.90;;;;;;4901439;29;39559;-86
2023/06/30 10:35:13;;;;;;;5.50;1.30;;;22.90;99.90;;;;;;4898399;29;37656;-84
2023/06/30 10:37:39;;;;;;;4.47;1.30;;;23.10;99.90;;;;;;4912262;29;39471;-85
2023/06/30 10:40:26;;;;;;;5.60;1.67;;;22.90;99.90;;;;;;4901375;29;38831;-85
2023/06/30 10:42:57;;;;;;;4.38;1.63;;;22.60;99.90;;;;;;4894795;29;47238;-86
2023/06/30 10:45:32;;;;;;;5.18;1.90;;;22.10;99.90;;;;;;4920782;29;37964;-84
2023/06/30 10:48:12;;;;;;;4.15;1.65;;;22.10;99.90;;;;;;4904193;29;39771;-86
2023/06/30 10:50:44;;;;;;;5.63;1.40;;;22.10;99.90;;;;;;4896070;29;47134;-86
2023/06/30 10:53:20;;;;;;;5.00;1.30;;;22.10;99.90;;;;;;4913524;29;39464;-86
2023/06/30 10:55:47;;;;;;;3.60;1.50;;;22.50;99.90;;;;;;4894373;29;37472;-84
2023/06/30 10:58:24;;;;;;;11.60;1.92;;;22.70;99.90;;;;;;4914876;29;39023;-85
2023/06/30 11:01:04;;;;;;;62.65;4.88;;;23.20;99.90;;;;;;4893883;29;39280;-86
2023/06/30 11:04:06;;;;;;;6.35;1.58;;;24.00;99.90;;;;;;4911820;29;49097;-85
2023/06/30 11:06:36;;;;;;;4.65;1.40;;;24.00;99.90;;;;;;4838820;29;47292;-86
2023/06/30 11:09:09;;;;;;;4.53;1.25;;;23.10;99.90;;;;;;4873688;29;38231;-85
2023/06/30 11:11:51;;;;;;;8.80;2.10;;;23.20;99.90;;;;;;4890401;29;38763;-86
2023/06/30 11:14:31;;;;;;;3.85;1.63;;;23.50;99.90;;;;;;4895890;29;37465;-85
2023/06/30 11:17:03;;;;;;;6.28;1.60;;;23.90;99.90;;;;;;4891395;29;38197;-85
2023/06/30 11:19:29;;;;;;;5.22;1.10;;;24.30;99.90;;;;;;4894867;29;47117;-84
2023/06/30 11:22:31;;;;;;;6.88;1.40;;;24.00;99.90;;;;;;4897731;29;39241;-85
2023/06/30 11:24:57;;;;;;;9.32;1.50;;;23.50;99.90;;;;;;4861642;29;48433;-84
2023/06/30 11:27:30;;;;;;;3.13;1.70;;;23.50;99.90;;;;;;4896229;29;37938;-83
2023/06/30 11:29:59;;;;;;;8.95;1.50;;;23.60;99.90;;;;;;4911616;29;39719;-84
2023/06/30 11:32:29;;;;;;;4.97;1.52;;;23.20;99.90;;;;;;4908969;29;39773;-84
2023/06/30 11:34:57;;;;;;;6.97;1.40;;;23.20;99.90;;;;;;4910085;29;39088;-84
2023/06/30 11:37:24;;;;;;;6.15;1.67;;;23.30;99.90;;;;;;4891518;29;38659;-85
2023/06/30 11:39:55;;;;;;;8.38;1.55;;;23.50;99.90;;;;;;4901497;29;39096;-84
2023/06/30 11:42:22;;;;;;;3.50;1.13;;;23.80;99.90;;;;;;4887856;29;39282;-85
2023/06/30 11:44:49;;;;;;;4.18;1.42;;;23.70;99.90;;;;;;4903504;29;38017;-85
2023/06/30 11:47:16;;;;;;;5.10;1.50;;;23.60;99.90;;;;;;4914352;29;37937;-85
2023/06/30 11:49:43;;;;;;;2.40;1.17;;;23.40;99.90;;;;;;4902086;29;40706;-85
2023/06/30 11:52:09;;;;;;;5.97;1.27;;;23.30;99.90;;;;;;4890434;29;39253;-84
2023/06/30 11:54:36;;;;;;;19.15;2.47;;;23.80;99.90;;;;;;4888238;29;39207;-84
2023/06/30 11:57:04;;;;;;;6.20;1.45;;;24.30;99.90;;;;;;4889320;29;38082;-84
2023/06/30 11:59:31;;;;;;;4.68;1.70;;;24.40;99.90;;;;;;4893189;29;40912;-85
2023/06/30 12:01:57;;;;;;;9.10;1.52;;;24.30;99.90;;;;;;4906607;29;38178;-84
2023/06/30 12:04:28;;;;;;;7.70;1.42;;;24.20;99.90;;;;;;4897334;29;39696;-84
2023/06/30 12:06:57;;;;;;;7.00;1.70;;;24.10;99.90;;;;;;4888082;29;36612;-84
2023/06/30 12:09:23;;;;;;;2.88;1.65;;;23.10;99.90;;;;;;4894213;29;40663;-84
2023/06/30 12:11:49;;;;;;;7.07;1.80;;;23.10;99.90;;;;;;4889636;29;40131;-83
2023/06/30 12:14:18;;;;;;;4.13;1.98;;;23.50;99.90;;;;;;4911707;29;38684;-84
2023/06/30 12:16:45;;;;;;;5.05;2.25;;;23.80;99.90;;;;;;4887281;29;37936;-83
2023/06/30 12:19:12;;;;;;;3.58;1.95;;;23.60;99.90;;;;;;4901209;29;39774;-85
2023/06/30 12:21:59;;;;;;;6.88;2.47;;;23.60;99.90;;;;;;4903189;29;38669;-83
2023/06/30 12:24:33;;;;;;;4.45;2.13;;;23.70;99.90;;;;;;4889199;29;37038;-84
2023/06/30 12:27:04;;;;;;;5.15;2.50;;;23.50;99.90;;;;;;4902188;29;37680;-82
2023/06/30 12:29:33;;;;;;;4.50;2.33;;;23.20;99.90;;;;;;4890378;29;47188;-82
2023/06/30 12:32:00;;;;;;;12.35;2.60;;;23.10;99.90;;;;;;4890301;29;39347;-81
2023/06/30 12:34:34;;;;;;;5.65;2.20;;;23.00;99.90;;;;;;4889994;29;38143;-86
2023/06/30 12:37:00;;;;;;;5.93;2.45;;;23.00;99.90;;;;;;4903735;29;37534;-82
2023/06/30 12:39:27;;;;;;;7.60;2.33;;;23.20;99.90;;;;;;4887036;29;40567;-83
2023/06/30 12:41:54;;;;;;;5.65;2.58;;;23.50;99.90;;;;;;4902095;29;40273;-83
2023/06/30 12:44:21;;;;;;;7.32;2.10;;;23.40;99.90;;;;;;4887856;29;38230;-82
2023/06/30 12:47:07;;;;;;;9.10;2.33;;;23.50;99.90;;;;;;4905106;29;37705;-81
2023/06/30 12:49:36;;;;;;;7.32;2.10;;;23.70;99.90;;;;;;4902867;29;46942;-82
2023/06/30 12:52:03;;;;;;;9.00;2.25;;;24.00;99.90;;;;;;4879569;29;39082;-82
2023/06/30 12:54:30;;;;;;;8.90;2.03;;;23.90;99.90;;;;;;4884455;29;39847;-81
2023/06/30 12:56:56;;;;;;;5.20;2.35;;;23.90;99.90;;;;;;4881850;29;38415;-82
2023/06/30 12:59:23;;;;;;;3.40;1.75;;;24.50;99.90;;;;;;4902661;29;39663;-81
2023/06/30 13:01:50;;;;;;;3.85;1.80;;;24.80;99.90;;;;;;4881939;29;37762;-82
2023/06/30 13:04:16;;;;;;;6.15;1.65;;;24.90;99.90;;;;;;4886238;29;40276;-81
2023/06/30 13:06:42;;;;;;;8.93;1.88;;;25.20;99.90;;;;;;4884794;29;36904;-81
2023/06/30 13:09:08;;;;;;;6.68;1.50;;;25.10;99.90;;;;;;4898912;29;38591;-82
2023/06/30 13:11:34;;;;;;;5.90;1.70;;;24.80;99.90;;;;;;4890870;29;37408;-83
2023/06/30 13:14:01;;;;;;;5.85;1.48;;;24.90;99.90;;;;;;4884939;29;36833;-83
2023/06/30 13:16:28;;;;;;;14.02;2.10;;;25.10;99.90;;;;;;4882386;29;47324;-81
2023/06/30 13:18:54;;;;;;;4.10;1.48;;;25.20;99.90;;;;;;4896492;29;39764;-81
2023/06/30 13:21:21;;;;;;;9.43;1.83;;;25.00;99.90;;;;;;4880706;29;37320;-80
2023/06/30 13:23:49;;;;;;;8.85;1.25;;;25.10;99.90;;;;;;4892797;29;37499;-82
2023/06/30 13:26:15;;;;;;;6.75;1.40;;;25.00;99.90;;;;;;4882422;29;36461;-83
2023/06/30 13:28:41;;;;;;;7.43;1.58;;;25.20;99.90;;;;;;4900238;29;38778;-84
2023/06/30 13:31:07;;;;;;;6.78;1.50;;;25.30;99.90;;;;;;4885186;29;38402;-82
2023/06/30 13:33:34;;;;;;;6.38;1.50;;;24.90;99.90;;;;;;4883048;29;38200;-81
2023/06/30 13:36:00;;;;;;;6.72;1.60;;;25.10;99.90;;;;;;4896876;29;37106;-82
2023/06/30 13:38:26;;;;;;;4.43;1.55;;;25.10;99.90;;;;;;4879366;29;40685;-81
2023/06/30 13:40:52;;;;;;;5.65;1.52;;;25.30;99.90;;;;;;4883387;29;38281;-82
2023/06/30 13:43:19;;;;;;;4.03;1.33;;;25.30;99.90;;;;;;4882435;29;39010;-82
2023/06/30 13:45:45;;;;;;;1.90;1.17;;;25.50;99.90;;;;;;4901156;29;37237;-82
2023/06/30 13:48:12;;;;;;;2.90;1.02;;;24.80;99.90;;;;;;4903081;29;39425;-82
2023/06/30 13:50:39;;;;;;;7.70;1.27;;;24.40;99.90;;;;;;4892798;29;38886;-82
2023/06/30 13:53:05;;;;;;;12.95;1.77;;;24.30;99.90;;;;;;4892503;29;39685;-82
2023/06/30 13:55:31;;;;;;;4.70;1.00;;;24.90;99.90;;;;;;4911538;29;37454;-82
2023/06/30 13:57:57;;;;;;;9.40;1.50;;;25.10;99.90;;;;;;4909095;29;37695;-82
2023/06/30 14:00:23;;;;;;;9.35;2.22;;;25.00;99.90;;;;;;4909843;29;38600;-82
2023/06/30 14:02:50;;;;;;;5.20;1.42;;;24.60;99.90;;;;;;4890020;29;39164;-81
2023/06/30 14:05:16;;;;;;;3.55;1.17;;;24.50;99.90;;;;;;4886850;29;38871;-81
2023/06/30 14:07:42;;;;;;;2.95;1.35;;;24.70;99.90;;;;;;4884099;29;38576;-82
2023/06/30 14:10:09;;;;;;;4.55;1.23;;;24.90;99.90;;;;;;4887712;29;38369;-80
2023/06/30 14:12:35;;;;;;;7.70;1.42;;;24.70;99.90;;;;;;4882990;29;38512;-81
2023/06/30 14:15:01;;;;;;;5.30;1.55;;;24.60;99.90;;;;;;4890116;29;37621;-81
2023/06/30 14:17:28;;;;;;;5.13;1.27;;;24.60;99.90;;;;;;4905600;29;37905;-81
2023/06/30 14:19:54;;;;;;;5.53;1.60;;;24.90;99.90;;;;;;4892810;29;39837;-81
2023/06/30 14:22:20;;;;;;;3.58;1.80;;;25.00;99.90;;;;;;4901186;29;38573;-81
2023/06/30 14:24:47;;;;;;;4.60;1.23;;;25.00;99.90;;;;;;4906180;29;36981;-81
2023/06/30 14:27:13;;;;;;;5.88;1.30;;;25.20;99.90;;;;;;4892157;29;38943;-84
2023/06/30 14:29:42;;;;;;;10.40;1.75;;;25.20;99.90;;;;;;4895652;29;38583;-82
2023/06/30 14:32:09;;;;;;;4.18;1.70;;;25.30;99.90;;;;;;4890435;29;39220;-82
2023/06/30 14:34:35;;;;;;;5.90;1.38;;;25.10;99.90;;;;;;4907317;29;36931;-82
2023/06/30 14:37:01;;;;;;;4.30;1.30;;;24.90;99.90;;;;;;4908240;29;39448;-84
2023/06/30 14:39:28;;;;;;;4.57;1.77;;;24.70;99.90;;;;;;4886153;29;47409;-82
2023/06/30 14:41:54;;;;;;;4.85;1.40;;;24.40;99.90;;;;;;4900240;29;38751;-82
2023/06/30 14:44:25;;;;;;;6.05;1.58;;;24.10;99.90;;;;;;4902970;29;35870;-81
2023/06/30 14:46:51;;;;;;;4.80;1.53;;;24.10;99.90;;;;;;4883229;29;38495;-82
2023/06/30 14:49:18;;;;;;;2.85;1.30;;;24.10;99.90;;;;;;4886467;29;38857;-82
2023/06/30 14:51:44;;;;;;;3.60;1.05;;;24.20;99.90;;;;;;4904003;29;38550;-82
2023/06/30 14:54:10;;;;;;;10.35;2.17;;;24.50;99.90;;;;;;4887730;29;37793;-82
2023/06/30 14:56:37;;;;;;;9.32;2.15;;;24.40;99.90;;;;;;4895791;29;39022;-82
2023/06/30 14:59:03;;;;;;;6.32;1.70;;;24.30;99.90;;;;;;4890621;29;36553;-82
2023/06/30 15:01:29;;;;;;;7.72;1.73;;;24.30;99.90;;;;;;4880566;29;39007;-82
2023/06/30 15:03:55;;;;;;;6.55;1.52;;;24.00;99.90;;;;;;4884199;29;36637;-84
2023/06/30 15:06:21;;;;;;;7.60;1.55;;;24.10;99.90;;;;;;4891422;29;39561;-82
2023/06/30 15:08:48;;;;;;;6.97;2.00;;;24.10;99.90;;;;;;4888211;29;39239;-84
2023/06/30 15:11:14;;;;;;;10.00;1.42;;;24.10;99.90;;;;;;4883559;29;37655;-84
2023/06/30 15:13:40;;;;;;;5.88;1.40;;;24.00;99.90;;;;;;4874041;29;37858;-81
2023/06/30 15:16:06;;;;;;;2.78;1.13;;;24.10;99.90;;;;;;4880991;29;39736;-82
2023/06/30 15:18:32;;;;;;;9.25;1.40;;;24.10;99.90;;;;;;4883102;29;37304;-82
2023/06/30 15:20:59;;;;;;;5.22;1.48;;;24.20;99.90;;;;;;4882217;29;41174;-82
2023/06/30 15:23:25;;;;;;;6.70;1.25;;;24.10;99.90;;;;;;4877263;29;37383;-83
2023/06/30 15:25:51;;;;;;;9.80;1.73;;;23.50;99.90;;;;;;4893432;29;38946;-85
2023/06/30 15:28:17;;;;;;;6.13;1.67;;;23.40;99.90;;;;;;4897781;29;38943;-86
2023/06/30 15:30:43;;;;;;;5.68;1.40;;;23.50;99.90;;;;;;4894400;29;39702;-83
2023/06/30 15:33:09;;;;;;;6.40;1.40;;;23.40;99.90;;;;;;4881236;29;38329;-84
2023/06/30 15:35:36;;;;;;;6.85;1.30;;;23.70;99.90;;;;;;4897737;29;40742;-83
2023/06/30 15:38:02;;;;;;;4.95;1.38;;;23.30;99.90;;;;;;4886605;29;39075;-83
2023/06/30 15:40:29;;;;;;;6.85;1.58;;;23.30;99.90;;;;;;4888251;29;38559;-84
2023/06/30 15:42:55;;;;;;;11.27;2.10;;;23.10;99.90;;;;;;4893318;29;38181;-83
2023/06/30 15:45:21;;;;;;;9.48;1.50;;;23.10;99.90;;;;;;4896677;29;41965;-84
2023/06/30 15:47:47;;;;;;;6.55;1.58;;;23.00;99.90;;;;;;4894098;29;38991;-84
2023/06/30 15:50:13;;;;;;;10.00;1.67;;;22.90;99.90;;;;;;4892072;29;39225;-83
2023/06/30 15:52:40;;;;;;;7.40;1.45;;;22.70;99.90;;;;;;4905018;29;37355;-83
2023/06/30 15:55:11;;;;;;;9.52;2.20;;;22.50;99.90;;;;;;4890817;29;40769;-83
2023/06/30 15:57:38;;;;;;;10.02;1.73;;;22.40;99.90;;;;;;4904683;29;40013;-84
2023/06/30 16:00:06;;;;;;;8.25;2.60;;;22.20;99.90;;;;;;4891477;29;37667;-84
2023/06/30 16:02:33;;;;;;;9.18;1.70;;;22.10;99.90;;;;;;4898292;29;37588;-84
2023/06/30 16:04:59;;;;;;;7.53;1.50;;;21.90;99.90;;;;;;4886965;29;37747;-83
2023/06/30 16:07:25;;;;;;;6.25;1.73;;;21.80;99.90;;;;;;4898427;29;38896;-83
2023/06/30 16:09:52;;;;;;;9.20;1.80;;;21.70;99.90;;;;;;4900156;29;38676;-83
2023/06/30 16:12:18;;;;;;;4.97;1.40;;;21.70;99.90;;;;;;4910419;29;39329;-83
2023/06/30 16:14:46;;;;;;;11.13;1.98;;;21.90;99.90;;;;;;4913112;29;39863;-82
2023/06/30 16:17:13;;;;;;;6.07;1.67;;;21.90;99.90;;;;;;4906537;29;38651;-83
2023/06/30 16:19:39;;;;;;;11.60;1.83;;;21.90;99.90;;;;;;4907318;29;39921;-82
2023/06/30 16:22:05;;;;;;;7.43;1.52;;;21.80;99.90;;;;;;4905181;29;38349;-83
2023/06/30 16:24:31;;;;;;;4.72;1.60;;;22.00;99.90;;;;;;4905848;29;40546;-82
2023/06/30 16:26:57;;;;;;;8.65;1.92;;;21.90;99.90;;;;;;4899519;29;38333;-82
2023/06/30 16:29:24;;;;;;;16.80;2.05;;;21.90;99.90;;;;;;4905593;29;38258;-83
2023/06/30 16:31:51;;;;;;;8.02;1.85;;;22.00;99.90;;;;;;4886086;29;38630;-82
2023/06/30 16:34:17;;;;;;;8.45;1.70;;;22.10;99.90;;;;;;4908063;29;39073;-83
2023/06/30 16:36:43;;;;;;;7.55;1.55;;;22.00;99.90;;;;;;4894428;29;39050;-84
2023/06/30 16:39:09;;;;;;;12.20;1.52;;;22.00;99.90;;;;;;4895532;29;37469;-84
2023/06/30 16:41:35;;;;;;;5.72;1.50;;;21.90;99.90;;;;;;4904879;29;38376;-83
2023/06/30 16:44:02;;;;;;;9.32;1.58;;;21.70;99.90;;;;;;4898102;29;39070;-84
2023/06/30 16:46:28;;;;;;;9.35;1.95;;;22.00;99.90;;;;;;4889481;29;38874;-84
2023/06/30 16:48:54;;;;;;;10.90;1.80;;;22.10;99.90;;;;;;4885908;29;36656;-84